Time;durP1;ratioP1;P1;durP2;ratioP2;P2;SDS_P1;SDS_P2;PMS_P1;PMS_P2;Temp;Humidity;BMP_temperature;BMP_pressure;BME280_temperature;BME280_humidity;BME280_pressure;Samples;Min_cycle;Max_cycle;Signal;HPM_P1;HPM_P2
2021/12/12 00:00:26;;;;;;;9.73;8.00;;;;;;;3.64;78.83;96316.63;4979402;28;20204;-83
2021/12/12 00:03:02;;;;;;;9.17;7.83;;;;;;;3.64;79.07;96314.09;4979169;28;20231;-84
2021/12/12 00:05:46;;;;;;;8.90;8.00;;;;;;;3.67;79.25;96308.75;4979283;28;20211;-83
2021/12/12 00:08:16;;;;;;;8.80;7.87;;;;;;;3.58;79.43;96304.34;4980171;28;20203;-83
2021/12/12 00:10:48;;;;;;;8.57;7.67;;;;;;;3.50;79.86;96310.00;4978948;28;20259;-83
2021/12/12 00:13:28;;;;;;;10.03;7.63;;;;;;;3.56;80.08;96318.94;4979237;28;20240;-83
2021/12/12 00:15:56;;;;;;;9.70;8.00;;;;;;;3.60;79.73;96330.50;4979227;28;20882;-83
2021/12/12 00:18:31;;;;;;;8.93;7.53;;;;;;;3.61;80.06;96327.84;4979550;28;20208;-83
2021/12/12 00:20:58;;;;;;;8.07;7.23;;;;;;;3.64;79.86;96329.38;4978544;28;20627;-83
2021/12/12 00:26:12;;;;;;;9.70;7.80;;;;;;;3.67;80.32;96337.56;4964180;28;20238;-83
2021/12/12 00:28:49;;;;;;;8.57;7.67;;;;;;;3.69;80.27;96340.81;4980209;28;20208;-84
2021/12/12 00:31:29;;;;;;;9.17;7.80;;;;;;;3.72;80.33;96343.13;4979133;28;20295;-83
2021/12/12 00:34:10;;;;;;;8.70;7.80;;;;;;;3.71;80.40;96346.59;4960099;29;20243;-84
2021/12/12 00:36:42;;;;;;;7.97;7.17;;;;;;;3.72;80.43;96347.41;4958992;28;20279;-83
2021/12/12 00:39:17;;;;;;;9.27;7.53;;;;;;;3.71;80.27;96354.22;4944809;29;20196;-84
2021/12/12 00:41:54;;;;;;;8.83;7.67;;;;;;;3.69;80.68;96345.09;4954248;28;20588;-84
2021/12/12 00:44:24;;;;;;;9.07;7.40;;;;;;;3.70;81.21;96346.72;4990094;28;20264;-84
2021/12/12 00:46:52;;;;;;;8.10;7.23;;;;;;;3.71;81.31;96344.03;4979340;28;20271;-84
2021/12/12 00:49:19;;;;;;;8.27;6.90;;;;;;;3.69;81.70;96345.91;4978393;28;20228;-83
2021/12/12 00:51:46;;;;;;;8.47;7.57;;;;;;;3.72;81.99;96350.75;4977573;28;20236;-83
2021/12/12 00:54:15;;;;;;;8.10;7.30;;;;;;;3.70;82.95;96341.63;4978645;28;20224;-83
2021/12/12 00:56:43;;;;;;;8.57;7.67;;;;;;;3.68;83.20;96344.28;4978957;28;20298;-83
2021/12/12 00:59:10;;;;;;;7.83;7.00;;;;;;;3.72;83.07;96344.84;4978713;28;20215;-84
2021/12/12 01:01:42;;;;;;;7.93;7.07;;;;;;;3.70;83.41;96350.06;4977961;28;20200;-84
2021/12/12 01:04:15;;;;;;;7.90;6.83;;;;;;;3.72;83.19;96357.59;4978028;28;20287;-83
2021/12/12 01:06:42;;;;;;;8.80;6.90;;;;;;;3.68;83.89;96357.00;4977756;28;20220;-84
2021/12/12 01:09:13;;;;;;;7.50;6.70;;;;;;;3.72;83.92;96362.69;4977856;28;20231;-84
2021/12/12 01:11:43;;;;;;;8.33;7.20;;;;;;;3.70;84.41;96365.34;4976079;28;20204;-83
2021/12/12 01:14:13;;;;;;;8.20;7.37;;;;;;;3.72;84.01;96357.59;4977257;28;20231;-83
2021/12/12 01:16:45;;;;;;;9.50;7.90;;;;;;;3.72;83.78;96365.22;4976874;28;20746;-83
2021/12/12 01:19:16;;;;;;;8.37;7.47;;;;;;;3.73;84.16;96371.94;4977607;28;20204;-84
2021/12/12 01:21:45;;;;;;;9.17;7.23;;;;;;;3.75;84.05;96372.66;4976135;28;20205;-84
2021/12/12 01:24:18;;;;;;;9.00;7.60;;;;;;;3.72;83.80;96376.22;4976989;28;20200;-83
2021/12/12 01:26:46;;;;;;;8.50;7.63;;;;;;;3.77;84.20;96378.44;4977193;28;20287;-83
2021/12/12 01:29:13;;;;;;;9.67;7.97;;;;;;;3.81;83.80;96385.75;4976990;28;20204;-83
2021/12/12 01:31:47;;;;;;;9.03;7.90;;;;;;;3.77;83.70;96398.81;4976356;28;20204;-84
2021/12/12 01:34:16;;;;;;;9.23;7.90;;;;;;;3.82;83.72;96401.84;4976512;28;20224;-83
2021/12/12 01:36:51;;;;;;;10.87;8.83;;;;;;;3.81;83.88;96395.94;4976786;28;20320;-84
2021/12/12 01:39:23;;;;;;;8.47;7.57;;;;;;;3.84;83.36;96404.28;4977150;28;20253;-83
2021/12/12 01:41:55;;;;;;;11.20;8.67;;;;;;;3.84;83.69;96401.72;4977014;28;20232;-83
2021/12/12 01:44:26;;;;;;;8.93;8.03;;;;;;;3.74;83.99;96399.84;4976234;28;20734;-83
2021/12/12 01:47:08;;;;;;;10.40;8.73;;;;;;;3.74;84.49;96404.94;4977703;28;20734;-84
2021/12/12 01:49:39;;;;;;;9.00;8.10;;;;;;;3.75;84.28;96406.56;4981602;28;20200;-84
2021/12/12 01:52:08;;;;;;;9.73;7.97;;;;;;;3.75;84.64;96404.03;4980931;28;20263;-84
2021/12/12 01:54:44;;;;;;;11.00;8.63;;;;;;;3.84;84.12;96397.44;4979142;28;20219;-83
2021/12/12 01:57:14;;;;;;;9.03;7.77;;;;;;;3.88;83.89;96398.00;4978593;28;20254;-84
2021/12/12 01:59:42;;;;;;;8.80;7.90;;;;;;;3.88;83.64;96398.81;4977844;28;20698;-84
2021/12/12 02:02:14;;;;;;;9.00;8.10;;;;;;;3.88;83.72;96398.81;4978862;28;20278;-84
2021/12/12 02:04:45;;;;;;;9.80;8.63;;;;;;;3.89;83.34;96402.16;4978084;28;20228;-83
2021/12/12 02:07:15;;;;;;;9.40;8.40;;;;;;;3.91;83.67;96398.59;4978208;28;20220;-84
2021/12/12 02:09:43;;;;;;;10.67;8.20;;;;;;;3.93;83.60;96406.13;4977296;28;20562;-83
2021/12/12 02:12:12;;;;;;;9.83;7.97;;;;;;;3.93;83.48;96404.38;4958298;28;20224;-84
2021/12/12 02:14:40;;;;;;;9.83;7.83;;;;;;;3.93;83.17;96404.38;4958191;28;20225;-84
2021/12/12 02:17:16;;;;;;;9.57;8.63;;;;;;;3.97;83.38;96410.06;4960553;28;20738;-84
2021/12/12 02:19:55;;;;;;;8.47;7.57;;;;;;;3.99;83.32;96416.66;4977663;28;20211;-83
2021/12/12 02:22:39;;;;;;;9.97;8.30;;;;;;;4.00;83.01;96410.66;4969552;28;20737;-84
2021/12/12 02:36:11;;;;;;;9.30;8.30;;;;;;;3.97;83.16;96410.88;4975405;28;20279;-83
2021/12/12 02:38:40;;;;;;;10.70;8.90;;;;;;;4.01;83.25;96419.09;4975588;28;20212;-84
2021/12/12 02:41:08;;;;;;;9.00;8.10;;;;;;;3.97;82.93;96412.59;4975549;28;20231;-83
2021/12/12 02:43:41;;;;;;;8.83;7.93;;;;;;;3.99;83.05;96413.31;4974777;28;20235;-84
2021/12/12 02:46:09;;;;;;;8.97;8.07;;;;;;;3.92;83.23;96407.03;4975701;28;20211;-83
2021/12/12 02:48:42;;;;;;;9.43;8.37;;;;;;;3.84;84.10;96411.91;4975670;28;20208;-84
2021/12/12 02:51:12;;;;;;;9.63;8.17;;;;;;;3.80;84.11;96413.88;4975547;28;20224;-83
2021/12/12 02:53:44;;;;;;;9.30;8.37;;;;;;;3.89;84.26;96427.63;4975569;28;20227;-84
2021/12/12 02:56:15;;;;;;;8.90;8.00;;;;;;;3.93;83.68;96426.50;4975265;28;20251;-83
2021/12/12 02:58:43;;;;;;;9.27;8.27;;;;;;;3.89;84.02;96435.28;4975911;28;20204;-83
2021/12/12 03:01:15;;;;;;;9.37;8.37;;;;;;;3.84;84.22;96428.00;4975850;28;20203;-84
2021/12/12 03:03:43;;;;;;;9.73;8.40;;;;;;;3.90;83.57;96432.63;4975597;28;20215;-83
2021/12/12 03:06:15;;;;;;;9.67;8.03;;;;;;;3.91;83.53;96435.97;4975007;28;20571;-83
2021/12/12 03:08:45;;;;;;;9.80;8.00;;;;;;;3.95;83.56;96429.75;4975931;28;20278;-84
2021/12/12 03:11:12;;;;;;;9.50;8.20;;;;;;;3.91;83.53;96421.50;4976299;28;20202;-84
2021/12/12 03:13:40;;;;;;;9.00;8.07;;;;;;;3.88;83.41;96426.81;4974942;28;20236;-83
2021/12/12 03:16:08;;;;;;;8.23;7.43;;;;;;;3.91;83.45;96433.44;4976045;28;20236;-84
2021/12/12 03:18:44;;;;;;;9.07;8.00;;;;;;;3.95;82.99;96419.56;4975217;28;20208;-83
2021/12/12 03:21:16;;;;;;;9.07;8.00;;;;;;;4.00;82.90;96428.47;4975183;28;20200;-84
2021/12/12 03:23:46;;;;;;;10.07;8.30;;;;;;;4.06;82.55;96425.44;4975117;28;20320;-84
2021/12/12 03:26:14;;;;;;;9.30;7.67;;;;;;;4.11;82.51;96435.31;4975388;28;20224;-84
2021/12/12 03:28:44;;;;;;;9.03;7.87;;;;;;;4.11;82.15;96430.19;4975141;28;20268;-83
2021/12/12 03:31:13;;;;;;;9.30;8.40;;;;;;;4.13;82.09;96431.72;4975315;28;20598;-84
2021/12/12 03:33:41;;;;;;;8.93;8.00;;;;;;;4.14;81.88;96429.97;4975375;28;20236;-84
2021/12/12 03:36:10;;;;;;;9.03;7.63;;;;;;;4.09;81.76;96449.88;4978984;28;20231;-83
2021/12/12 03:38:41;;;;;;;9.47;8.23;;;;;;;4.06;81.75;96439.91;4978506;28;20215;-84
2021/12/12 03:41:11;;;;;;;9.50;8.13;;;;;;;4.06;81.99;96432.28;4978883;28;20200;-84
2021/12/12 03:43:38;;;;;;;8.47;7.53;;;;;;;4.10;82.00;96428.56;4978321;28;20232;-84
2021/12/12 03:46:10;;;;;;;9.70;8.50;;;;;;;4.11;81.70;96432.75;4977811;28;20244;-84
2021/12/12 03:48:39;;;;;;;8.20;7.40;;;;;;;4.14;81.45;96430.78;4978747;28;20244;-84
2021/12/12 03:51:07;;;;;;;9.10;7.57;;;;;;;4.16;81.45;96425.56;4978909;28;20201;-83
2021/12/12 03:53:35;;;;;;;9.57;7.73;;;;;;;4.11;81.55;96437.84;4978221;28;20227;-84
2021/12/12 03:56:02;;;;;;;9.93;7.73;;;;;;;4.12;81.69;96426.72;4978623;28;20227;-84
2021/12/12 03:58:29;;;;;;;9.43;7.80;;;;;;;4.13;81.01;96431.72;4981868;28;20263;-83
2021/12/12 04:00:59;;;;;;;9.23;7.50;;;;;;;4.14;80.98;96435.06;4985369;28;20196;-84
2021/12/12 04:03:26;;;;;;;8.53;7.57;;;;;;;4.15;80.86;96436.69;4981240;28;20247;-84
2021/12/12 04:05:56;;;;;;;9.03;8.10;;;;;;;4.10;81.11;96438.78;4981516;28;20197;-84
2021/12/12 04:08:25;;;;;;;10.30;8.00;;;;;;;4.09;81.07;96432.88;4980251;28;20203;-84
2021/12/12 04:10:52;;;;;;;8.83;7.40;;;;;;;4.09;81.49;96437.16;4980048;28;20228;-83
2021/12/12 04:13:19;;;;;;;8.37;7.50;;;;;;;4.07;81.40;96432.16;4980727;28;20232;-83
2021/12/12 04:15:51;;;;;;;8.20;7.33;;;;;;;4.10;80.98;96442.13;4979979;28;20203;-84
2021/12/12 04:18:22;;;;;;;9.23;7.30;;;;;;;4.09;81.14;96434.59;4980625;28;20207;-84
2021/12/12 04:20:49;;;;;;;9.23;7.07;;;;;;;4.08;80.88;96448.25;4979722;28;20228;-83
2021/12/12 04:23:17;;;;;;;7.30;6.60;;;;;;;4.13;80.81;96458.94;4977765;28;20243;-83
2021/12/12 04:25:43;;;;;;;8.83;6.87;;;;;;;4.10;81.05;96452.31;4978932;28;20227;-84
2021/12/12 04:28:10;;;;;;;8.63;7.73;;;;;;;4.13;80.70;96459.75;4979051;28;20204;-83
2021/12/12 04:30:37;;;;;;;8.07;6.87;;;;;;;4.13;81.02;96462.28;4979693;28;20200;-83
2021/12/12 04:33:06;;;;;;;8.50;7.17;;;;;;;4.14;80.71;96466.47;4978029;28;20682;-84
2021/12/12 04:35:32;;;;;;;8.13;7.30;;;;;;;4.16;80.83;96468.91;4977966;28;20228;-84
2021/12/12 04:38:01;;;;;;;8.33;7.23;;;;;;;4.18;80.31;96474.69;4978054;28;20231;-83
2021/12/12 04:40:31;;;;;;;8.37;7.27;;;;;;;4.18;80.54;96484.91;4979062;28;20200;-84
2021/12/12 04:42:58;;;;;;;7.70;6.87;;;;;;;4.15;80.59;96487.66;4978788;28;20228;-84
2021/12/12 04:45:41;;;;;;;8.50;7.60;;;;;;;4.17;80.52;96490.91;4979125;28;20204;-85
2021/12/12 04:51:09;;;;;;;8.27;7.13;;;;;;;4.14;80.80;96493.69;4978202;28;20214;-84
2021/12/12 04:53:43;;;;;;;8.23;7.33;;;;;;;4.15;80.31;96498.66;4976717;28;20749;-84
2021/12/12 04:56:17;;;;;;;8.53;7.27;;;;;;;4.15;80.56;96495.31;4977036;28;20723;-84
2021/12/12 04:58:49;;;;;;;8.67;7.53;;;;;;;4.12;80.30;96498.91;4976889;28;20615;-84
2021/12/12 05:01:21;;;;;;;9.00;7.77;;;;;;;4.12;80.25;96500.63;4977935;28;20239;-84
2021/12/12 05:03:56;;;;;;;9.23;7.50;;;;;;;4.08;80.41;96500.03;4976660;28;20224;-84
2021/12/12 05:06:27;;;;;;;9.13;7.20;;;;;;;4.04;81.00;96510.59;4977363;28;20230;-84
2021/12/12 05:09:00;;;;;;;9.67;8.10;;;;;;;4.05;80.84;96515.56;4971154;28;20204;-83
2021/12/12 05:11:35;;;;;;;8.43;7.13;;;;;;;4.08;80.85;96515.34;4975890;28;20660;-83
2021/12/12 05:14:08;;;;;;;9.33;7.90;;;;;;;4.10;80.49;96521.13;4977006;28;20239;-84
2021/12/12 05:16:41;;;;;;;8.37;7.50;;;;;;;4.12;80.28;96518.47;4976222;28;20224;-84
2021/12/12 05:19:13;;;;;;;8.73;7.83;;;;;;;4.13;80.30;96520.91;4977245;28;20251;-84
2021/12/12 05:21:43;;;;;;;8.23;7.40;;;;;;;4.18;80.39;96525.66;4975567;28;20259;-84
2021/12/12 05:24:12;;;;;;;8.47;7.40;;;;;;;4.15;80.31;96524.16;4976979;28;20223;-84
2021/12/12 05:26:44;;;;;;;7.90;7.10;;;;;;;4.17;80.16;96531.69;4976575;28;20613;-84
2021/12/12 05:29:15;;;;;;;7.83;7.03;;;;;;;4.15;80.12;96531.00;4977173;28;20220;-84
2021/12/12 05:31:46;;;;;;;7.43;6.63;;;;;;;4.18;80.03;96543.50;4976536;28;20199;-84
2021/12/12 05:34:15;;;;;;;8.67;7.20;;;;;;;4.20;79.63;96543.41;4976730;28;20312;-84
2021/12/12 05:36:43;;;;;;;7.20;6.50;;;;;;;4.18;79.40;96530.78;4976580;28;20224;-84
2021/12/12 05:39:10;;;;;;;7.27;6.53;;;;;;;4.19;79.40;96539.22;4977531;28;20208;-83
2021/12/12 05:41:36;;;;;;;8.37;7.30;;;;;;;4.23;79.04;96532.97;4976369;28;20196;-84
2021/12/12 05:44:05;;;;;;;7.47;6.77;;;;;;;4.20;78.81;96530.66;4976897;28;20204;-84
2021/12/12 05:46:31;;;;;;;7.33;6.53;;;;;;;4.24;78.45;96529.47;4975553;28;20220;-84
2021/12/12 05:48:59;;;;;;;8.90;6.63;;;;;;;4.25;78.63;96531.09;4975968;28;20672;-84
2021/12/12 05:51:28;;;;;;;6.50;5.90;;;;;;;4.23;78.47;96528.69;4973191;28;20208;-84
2021/12/12 05:53:55;;;;;;;7.80;6.27;;;;;;;4.22;77.81;96531.34;4976151;28;20204;-84
2021/12/12 05:56:23;;;;;;;6.90;6.03;;;;;;;4.19;77.42;96536.69;4975361;28;20279;-84
2021/12/12 05:58:50;;;;;;;6.27;5.63;;;;;;;4.21;77.85;96545.03;4976281;28;20220;-84
2021/12/12 06:01:18;;;;;;;6.90;5.87;;;;;;;4.09;77.83;96544.16;4976098;28;20231;-84
2021/12/12 06:03:46;;;;;;;7.30;5.50;;;;;;;4.03;77.71;96545.47;4974847;28;20754;-83
2021/12/12 06:06:15;;;;;;;6.27;5.67;;;;;;;4.08;77.92;96547.66;4975031;28;20236;-84
2021/12/12 06:08:45;;;;;;;6.30;5.70;;;;;;;3.93;77.47;96554.69;4975803;28;20200;-83
2021/12/12 06:11:14;;;;;;;6.80;5.40;;;;;;;3.95;77.60;96546.94;4977128;28;20208;-84
2021/12/12 06:13:42;;;;;;;6.90;5.77;;;;;;;4.02;77.97;96558.31;4981620;28;20231;-84
2021/12/12 06:16:09;;;;;;;5.83;5.23;;;;;;;4.04;77.42;96557.25;4981321;28;20278;-84
2021/12/12 06:18:37;;;;;;;5.77;5.17;;;;;;;4.02;76.96;96561.66;4979431;28;20196;-84
2021/12/12 06:21:05;;;;;;;6.00;5.40;;;;;;;3.93;77.40;96567.41;4978854;28;20299;-84
2021/12/12 06:23:32;;;;;;;6.33;5.37;;;;;;;3.90;77.44;96566.81;4978111;28;20766;-84
2021/12/12 06:26:01;;;;;;;6.10;5.50;;;;;;;3.95;77.59;96565.56;4978469;28;20196;-84
2021/12/12 06:28:32;;;;;;;5.90;5.30;;;;;;;3.98;77.21;96565.34;4978324;28;20208;-84
2021/12/12 06:31:00;;;;;;;5.60;5.03;;;;;;;4.02;77.06;96566.75;4978287;28;20200;-84
2021/12/12 06:33:28;;;;;;;5.77;5.00;;;;;;;4.08;76.81;96576.50;4976735;28;20248;-84
2021/12/12 06:35:57;;;;;;;5.70;5.17;;;;;;;4.09;77.15;96573.03;4977939;28;20220;-84
2021/12/12 06:38:25;;;;;;;5.90;5.30;;;;;;;4.07;76.41;96568.97;4978926;28;20219;-84
2021/12/12 06:40:53;;;;;;;5.70;5.17;;;;;;;4.02;76.28;96579.50;4978624;28;20200;-84
2021/12/12 06:43:22;;;;;;;6.13;5.03;;;;;;;4.00;76.11;96581.34;4977042;28;20679;-84
2021/12/12 06:45:52;;;;;;;6.97;5.47;;;;;;;4.01;76.07;96584.72;4975966;28;20219;-84
2021/12/12 06:48:19;;;;;;;5.53;5.03;;;;;;;4.06;76.24;96585.97;4976483;28;20199;-84
2021/12/12 06:50:49;;;;;;;5.77;4.87;;;;;;;4.06;75.70;96583.44;4976562;28;20192;-84
2021/12/12 06:53:20;;;;;;;5.33;4.83;;;;;;;4.05;75.28;96579.25;4975544;28;20314;-84
2021/12/12 06:55:48;;;;;;;5.60;5.00;;;;;;;4.09;75.79;96584.94;4977018;28;20238;-83
2021/12/12 06:58:17;;;;;;;6.43;5.53;;;;;;;4.15;75.41;96592.16;4977651;28;20203;-84
2021/12/12 07:00:46;;;;;;;5.63;5.00;;;;;;;4.11;78.53;96593.28;4977487;28;20192;-84
2021/12/12 07:03:16;;;;;;;7.30;6.47;;;;;;;4.10;76.55;96586.56;4976289;28;20607;-83
2021/12/12 07:05:43;;;;;;;21.60;15.87;;;;;;;4.16;76.20;96599.69;4976675;28;20196;-84
2021/12/12 07:08:10;;;;;;;9.87;8.00;;;;;;;4.20;74.93;96595.19;4978229;28;20228;-84
2021/12/12 07:10:37;;;;;;;6.63;4.90;;;;;;;4.24;74.69;96599.13;4981839;28;20200;-84
2021/12/12 07:13:06;;;;;;;4.60;4.20;;;;;;;4.23;73.99;96597.53;4980975;28;20745;-83
2021/12/12 07:15:37;;;;;;;5.07;4.57;;;;;;;4.23;73.96;96601.81;4980286;28;20742;-84
2021/12/12 07:18:10;;;;;;;4.73;3.93;;;;;;;4.28;74.50;96604.81;4980230;28;20227;-83
2021/12/12 07:20:37;;;;;;;4.63;4.10;;;;;;;4.32;74.19;96607.03;4977936;28;20195;-84
2021/12/12 07:23:06;;;;;;;5.57;4.13;;;;;;;4.30;73.85;96601.22;4979083;28;20298;-83
2021/12/12 07:25:34;;;;;;;5.20;4.70;;;;;;;4.30;73.68;96608.88;4978281;28;20232;-84
2021/12/12 07:28:01;;;;;;;4.57;4.17;;;;;;;4.30;73.95;96606.31;4978894;28;20997;-84
2021/12/12 07:30:28;;;;;;;4.90;4.33;;;;;;;4.30;74.11;96615.69;4977791;28;20204;-84
2021/12/12 07:32:55;;;;;;;8.07;4.57;;;;;;;4.77;83.82;96622.41;4976033;28;20224;-83
2021/12/12 07:35:24;;;;;;;5.03;4.37;;;;;;;4.83;74.86;96624.47;4978905;28;20269;-83
2021/12/12 07:37:52;;;;;;;5.57;4.80;;;;;;;4.79;73.53;96630.75;4978079;28;20283;-84
2021/12/12 07:40:20;;;;;;;5.40;4.90;;;;;;;4.72;73.66;96638.03;4978294;28;20199;-84
2021/12/12 07:42:47;;;;;;;5.57;5.07;;;;;;;4.67;73.28;96634.19;4977559;28;20239;-84
2021/12/12 07:45:15;;;;;;;5.47;4.90;;;;;;;4.64;73.40;96632.69;4976709;28;20196;-83
2021/12/12 07:47:42;;;;;;;5.53;5.03;;;;;;;4.63;72.75;96638.72;4974747;28;20637;-84
2021/12/12 07:50:14;;;;;;;5.07;4.57;;;;;;;4.58;72.63;96638.25;4977213;28;20204;-83
2021/12/12 07:52:43;;;;;;;5.33;4.77;;;;;;;4.53;72.44;96640.31;4975912;28;20234;-84
2021/12/12 07:55:10;;;;;;;5.03;4.57;;;;;;;4.43;72.59;96636.81;4972836;28;20228;-84
2021/12/12 07:57:37;;;;;;;4.93;4.43;;;;;;;4.37;73.11;96642.38;4976897;28;20220;-83
2021/12/12 08:00:09;;;;;;;7.03;4.70;;;;;;;4.36;72.96;96646.66;4975820;28;20223;-83
2021/12/12 08:02:37;;;;;;;5.40;4.90;;;;;;;4.32;72.58;96644.44;4976385;28;20238;-83
2021/12/12 08:05:05;;;;;;;5.07;4.57;;;;;;;4.37;73.31;96638.09;4975916;28;20240;-83
2021/12/12 08:07:33;;;;;;;4.60;4.20;;;;;;;4.40;73.05;96640.44;4975610;28;20664;-84
2021/12/12 08:10:02;;;;;;;4.83;4.40;;;;;;;4.46;72.75;96639.16;4974476;28;20699;-83
2021/12/12 08:12:30;;;;;;;6.10;5.20;;;;;;;4.44;72.62;96641.00;4975261;28;20737;-83
2021/12/12 08:14:58;;;;;;;5.73;5.20;;;;;;;4.41;72.70;96636.13;4975396;28;20220;-84
2021/12/12 08:17:26;;;;;;;5.30;4.80;;;;;;;4.45;72.84;96634.97;4976200;28;20224;-83
2021/12/12 08:19:58;;;;;;;5.63;4.70;;;;;;;4.50;72.88;96630.34;4974715;28;20211;-84
2021/12/12 08:22:25;;;;;;;5.17;4.67;;;;;;;4.45;72.27;96634.97;4975347;28;20243;-83
2021/12/12 08:24:56;;;;;;;4.97;4.53;;;;;;;4.45;72.99;96643.44;4975283;28;20790;-83
2021/12/12 08:27:23;;;;;;;5.80;4.80;;;;;;;4.43;72.58;96644.47;4975620;28;20240;-83
2021/12/12 08:29:52;;;;;;;5.57;5.07;;;;;;;4.47;72.82;96644.13;4975628;28;20616;-83
2021/12/12 08:32:19;;;;;;;5.70;4.93;;;;;;;4.57;72.63;96638.38;4974572;28;20236;-83
2021/12/12 08:34:46;;;;;;;5.00;4.60;;;;;;;4.62;71.79;96636.31;4976612;28;20228;-83
2021/12/12 08:37:14;;;;;;;5.70;5.07;;;;;;;4.69;71.51;96635.72;4976390;28;20700;-83
2021/12/12 08:39:40;;;;;;;5.67;4.87;;;;;;;4.99;70.92;96637.72;4977434;28;20251;-83
2021/12/12 08:42:08;;;;;;;4.83;4.43;;;;;;;5.32;70.32;96629.22;4975347;28;20224;-83
2021/12/12 08:44:37;;;;;;;4.90;4.40;;;;;;;5.68;69.07;96628.09;4975875;28;20193;-83
2021/12/12 08:47:09;;;;;;;4.97;4.40;;;;;;;6.04;67.86;96628.69;4976745;28;20239;-83
2021/12/12 08:49:38;;;;;;;5.80;5.17;;;;;;;6.30;67.02;96631.72;4975560;28;20652;-83
2021/12/12 08:52:09;;;;;;;5.40;4.90;;;;;;;6.51;65.67;96635.91;4979021;28;20224;-83
2021/12/12 08:54:39;;;;;;;5.40;4.90;;;;;;;6.68;63.84;96631.94;4980511;28;20200;-83
2021/12/12 08:57:12;;;;;;;6.13;5.53;;;;;;;6.92;63.60;96629.13;4977960;28;20255;-83
2021/12/12 08:59:46;;;;;;;6.53;5.93;;;;;;;7.00;63.13;96625.91;4978098;28;20738;-83
2021/12/12 09:02:16;;;;;;;6.00;5.40;;;;;;;7.11;63.13;96610.47;4977969;28;20929;-83
2021/12/12 09:04:48;;;;;;;5.80;5.30;;;;;;;7.23;61.63;96619.66;4978145;28;20251;-83
2021/12/12 09:07:19;;;;;;;5.73;5.23;;;;;;;7.38;61.33;96615.78;4976878;28;20216;-83
2021/12/12 09:09:50;;;;;;;5.73;5.23;;;;;;;7.46;60.71;96622.81;4976529;28;20192;-83
2021/12/12 09:12:20;;;;;;;5.23;4.77;;;;;;;7.62;60.99;96628.25;4966044;28;20227;-83
2021/12/12 09:14:52;;;;;;;5.63;5.13;;;;;;;7.75;60.88;96630.53;4976930;28;20223;-83
2021/12/12 09:17:24;;;;;;;7.90;5.57;;;;;;;7.69;60.08;96625.97;4976936;28;20222;-83
2021/12/12 09:19:55;;;;;;;5.40;4.90;;;;;;;7.81;59.38;96627.47;4975317;28;20200;-83
2021/12/12 09:22:27;;;;;;;5.80;5.20;;;;;;;7.86;58.90;96633.81;4973165;28;20235;-83
2021/12/12 09:24:59;;;;;;;6.33;5.73;;;;;;;7.94;58.61;96636.50;4973541;28;20208;-83
2021/12/12 09:27:30;;;;;;;5.80;5.20;;;;;;;7.99;58.66;96630.97;4974170;28;20220;-82
2021/12/12 09:30:04;;;;;;;6.03;5.30;;;;;;;8.12;58.13;96641.75;4975193;28;20235;-84
2021/12/12 09:32:35;;;;;;;5.40;4.90;;;;;;;8.15;57.79;96640.69;4973310;28;20298;-81
2021/12/12 09:35:07;;;;;;;5.87;5.27;;;;;;;8.17;57.34;96641.38;4973823;28;20200;-80
2021/12/12 09:37:39;;;;;;;5.53;5.03;;;;;;;8.13;57.91;96650.28;4975164;28;20216;-81
2021/12/12 09:40:16;;;;;;;5.80;5.20;;;;;;;7.91;58.44;96636.75;4975750;28;20687;-80
2021/12/12 09:42:54;;;;;;;6.10;5.50;;;;;;;7.63;58.68;96645.25;4975188;28;20227;-81
2021/12/12 09:45:45;;;;;;;5.60;5.10;;;;;;;7.65;58.61;96637.44;4976835;28;20636;-81
2021/12/12 09:51:47;;;;;;;5.50;5.00;;;;;;;7.70;59.07;96642.97;4954677;28;20495;-81
2021/12/12 09:54:34;;;;;;;6.03;5.43;;;;;;;7.78;59.29;96630.28;4967001;28;20200;-82
2021/12/12 09:57:06;;;;;;;6.40;5.80;;;;;;;7.98;58.72;96626.78;4964588;28;20287;-82
2021/12/12 09:59:48;;;;;;;6.47;5.87;;;;;;;8.07;58.61;96622.63;4970823;28;20353;-82
2021/12/12 10:02:27;;;;;;;5.53;5.03;;;;;;;8.00;58.46;96622.34;4963541;28;20255;-82
2021/12/12 10:05:08;;;;;;;6.10;5.53;;;;;;;8.02;58.84;96620.44;4973904;28;20200;-81
2021/12/12 10:07:46;;;;;;;6.40;5.80;;;;;;;8.21;58.42;96623.00;4973179;28;20263;-81
2021/12/12 10:10:20;;;;;;;6.10;5.50;;;;;;;8.26;58.09;96620.84;4972946;28;20249;-81
2021/12/12 10:12:55;;;;;;;6.00;5.50;;;;;;;8.37;57.61;96616.53;4974304;28;20239;-80
2021/12/12 10:15:24;;;;;;;5.93;5.37;;;;;;;8.34;56.93;96620.19;4972981;28;20203;-82
2021/12/12 10:17:59;;;;;;;5.67;5.10;;;;;;;8.28;57.36;96615.56;4974106;28;20275;-82
2021/12/12 10:20:32;;;;;;;6.30;5.70;;;;;;;8.28;57.21;96607.88;4972662;28;20199;-82
2021/12/12 10:23:09;;;;;;;7.93;5.63;;;;;;;8.41;66.63;96611.00;4972000;28;20238;-82
2021/12/12 10:25:47;;;;;;;10.33;5.80;;;;;;;8.45;57.98;96614.09;4972675;28;20813;-82
2021/12/12 10:28:19;;;;;;;8.93;6.03;;;;;;;8.34;58.07;96599.66;4973516;28;20227;-83
2021/12/12 10:30:54;;;;;;;15.47;5.53;;;;;;;8.57;69.47;96603.53;4973206;28;20288;-82
2021/12/12 10:33:25;;;;;;;5.90;5.40;;;;;;;8.64;58.08;96609.75;4970829;28;20230;-82
2021/12/12 10:35:55;;;;;;;6.13;5.60;;;;;;;8.65;57.40;96598.53;4972310;28;20223;-82
2021/12/12 10:38:29;;;;;;;6.77;5.63;;;;;;;8.68;56.90;96602.53;4972744;28;20204;-82
2021/12/12 10:41:06;;;;;;;5.90;5.40;;;;;;;8.66;56.70;96600.13;4973007;28;20208;-82
2021/12/12 10:43:38;;;;;;;6.10;5.50;;;;;;;8.59;57.53;96591.38;4971960;28;20235;-82
2021/12/12 10:46:08;;;;;;;6.40;5.73;;;;;;;8.46;56.91;96583.19;4973460;28;20199;-82
2021/12/12 10:48:46;;;;;;;6.03;5.43;;;;;;;8.41;56.97;96580.22;4973963;28;20208;-82
2021/12/12 10:51:17;;;;;;;5.90;5.30;;;;;;;8.36;57.19;96591.81;4973265;28;20208;-82
2021/12/12 10:53:50;;;;;;;5.90;5.33;;;;;;;8.20;57.71;96588.03;4971771;28;20306;-82
2021/12/12 10:56:22;;;;;;;6.00;5.50;;;;;;;8.38;57.70;96577.09;4972541;28;20278;-82
2021/12/12 10:58:52;;;;;;;5.87;5.37;;;;;;;8.47;57.74;96576.25;4972743;28;20286;-83
2021/12/12 11:01:23;;;;;;;5.50;5.00;;;;;;;8.50;56.85;96574.22;4973381;28;20240;-82
2021/12/12 11:03:59;;;;;;;4.93;4.53;;;;;;;8.53;56.75;96579.09;4972590;28;20220;-82
2021/12/12 11:06:29;;;;;;;5.40;4.90;;;;;;;8.53;56.51;96576.53;4972796;28;20216;-83
2021/12/12 11:09:00;;;;;;;5.20;4.70;;;;;;;8.60;56.35;96585.28;4973677;28;20211;-83
2021/12/12 11:11:32;;;;;;;4.87;4.47;;;;;;;8.49;55.73;96582.06;4973114;28;20212;-82
2021/12/12 11:14:11;;;;;;;5.53;4.50;;;;;;;8.40;56.23;96576.03;4972970;28;20216;-83
2021/12/12 11:16:43;;;;;;;4.90;4.50;;;;;;;8.23;55.58;96581.84;4972695;28;20603;-82
2021/12/12 11:19:16;;;;;;;4.20;3.80;;;;;;;8.17;56.34;96582.38;4973430;28;20259;-83
2021/12/12 11:21:47;;;;;;;4.63;4.23;;;;;;;8.35;56.33;96577.38;4972849;28;20204;-82
2021/12/12 11:24:20;;;;;;;4.97;4.57;;;;;;;8.45;55.97;96566.16;4972710;28;20603;-83
2021/12/12 11:26:53;;;;;;;5.20;4.70;;;;;;;8.36;55.35;96561.84;4973838;28;20227;-81
2021/12/12 11:29:26;;;;;;;4.77;4.37;;;;;;;8.28;56.13;96559.13;4973136;28;20213;-82
2021/12/12 11:31:56;;;;;;;4.73;4.10;;;;;;;8.35;55.52;96555.09;4973769;28;20232;-82
2021/12/12 11:34:27;;;;;;;4.13;3.73;;;;;;;8.28;55.32;96559.13;4973603;28;20279;-82
2021/12/12 11:37:08;;;;;;;3.90;3.60;;;;;;;8.48;55.34;96559.91;4972934;28;20779;-82
2021/12/12 11:39:40;;;;;;;4.23;3.83;;;;;;;8.39;55.54;96556.44;4973461;28;20225;-82
2021/12/12 11:42:15;;;;;;;3.67;3.37;;;;;;;8.37;55.67;96560.91;4977105;28;20250;-82
2021/12/12 11:44:50;;;;;;;3.70;3.40;;;;;;;8.17;55.65;96556.72;4978328;28;20203;-83
2021/12/12 11:47:26;;;;;;;3.77;3.47;;;;;;;8.06;55.96;96562.00;4975448;28;20726;-83
2021/12/12 11:49:58;;;;;;;3.60;3.30;;;;;;;8.12;55.73;96571.69;4974573;28;20552;-83
2021/12/12 11:52:36;;;;;;;3.90;3.60;;;;;;;7.96;56.40;96570.50;4974782;28;20615;-83
2021/12/12 11:55:09;;;;;;;3.60;3.30;;;;;;;7.73;57.17;96563.22;4974905;28;20254;-82
2021/12/12 11:57:47;;;;;;;7.33;3.70;;;;;;;7.78;57.26;96553.38;4977367;28;20283;-82
2021/12/12 12:00:17;;;;;;;4.13;3.73;;;;;;;7.64;57.06;96552.03;4962671;28;20192;-82
2021/12/12 12:02:52;;;;;;;4.47;4.07;;;;;;;7.71;57.66;96553.09;4977878;28;20255;-82
2021/12/12 12:05:35;;;;;;;6.20;3.87;;;;;;;7.66;57.92;96557.84;4978105;28;20204;-82
2021/12/12 12:08:13;;;;;;;4.10;3.70;;;;;;;7.61;57.98;96557.41;4958269;28;20250;-82
2021/12/12 12:10:51;;;;;;;4.10;3.50;;;;;;;7.63;58.35;96556.34;4973491;28;20623;-82
2021/12/12 12:13:47;;;;;;;3.97;3.57;;;;;;;7.69;57.74;96557.56;4973093;28;20311;-82
2021/12/12 12:16:25;;;;;;;4.57;3.87;;;;;;;7.78;58.31;96548.25;4962513;28;20250;-82
2021/12/12 12:19:05;;;;;;;3.47;3.17;;;;;;;7.76;58.28;96556.06;4976649;28;20215;-82